createdAt,value
2023-04-08T00:01:19.956Z,101208.16
2023-04-08T00:03:47.067Z,101208.13
2023-04-08T00:06:14.004Z,101209.03
2023-04-08T00:08:40.984Z,101205.63
2023-04-08T00:11:07.931Z,101205.81
2023-04-08T00:13:34.893Z,101214.53
2023-04-08T00:16:02.138Z,101210.16
2023-04-08T00:18:29.679Z,101209.09
2023-04-08T00:20:57.621Z,101217.84
2023-04-08T00:23:24.941Z,101220.53
2023-04-08T00:25:51.939Z,101217.13
2023-04-08T00:28:18.916Z,101211.97
2023-04-08T00:30:46.123Z,101224.00
2023-04-08T00:33:13.378Z,101225.06
2023-04-08T00:35:40.368Z,101214.34
2023-04-08T00:38:08.309Z,101212.50
2023-04-08T00:40:35.947Z,101221.25
2023-04-08T00:43:02.858Z,101217.00
2023-04-08T00:45:29.987Z,101213.41
2023-04-08T00:47:57.168Z,101215.16
2023-04-08T00:50:24.489Z,101212.50
2023-04-08T00:52:51.490Z,101215.06
2023-04-08T00:55:18.469Z,101231.69
2023-04-08T00:57:46.258Z,101221.25
2023-04-08T01:00:14.579Z,101228.13
2023-04-08T01:03:11.339Z,101219.34
2023-04-08T01:05:57.386Z,101220.38
2023-04-08T01:08:27.789Z,101227.53
2023-04-08T01:10:59.542Z,101239.69
2023-04-08T01:13:27.520Z,101234.59
2023-04-08T01:15:55.173Z,101238.06
2023-04-08T01:18:23.114Z,101235.31
2023-04-08T01:20:51.124Z,101228.38
2023-04-08T01:23:35.625Z,101233.59
2023-04-08T01:26:02.543Z,101230.38
2023-04-08T01:28:30.270Z,101232.97
2023-04-08T01:31:01.246Z,101229.56
2023-04-08T01:33:29.161Z,101240.16
2023-04-08T01:35:57.098Z,101233.97
2023-04-08T01:38:26.326Z,101236.50
2023-04-08T01:40:55.123Z,101224.16
2023-04-08T01:43:22.989Z,101233.88
2023-04-08T01:45:50.574Z,101225.19
2023-04-08T01:48:18.986Z,101218.00
2023-04-08T01:50:46.428Z,101233.81
2023-04-08T01:53:13.883Z,101227.59
2023-04-08T01:55:44.447Z,101228.53
2023-04-08T01:58:19.689Z,101231.06
2023-04-08T02:00:46.990Z,101232.69
2023-04-08T02:03:15.399Z,101236.31
2023-04-08T02:05:42.549Z,101251.13
2023-04-08T02:08:10.398Z,101251.13
2023-04-08T02:10:37.283Z,101252.84
2023-04-08T02:13:05.656Z,101251.13
2023-04-08T02:15:36.000Z,101251.03
2023-04-08T02:18:10.055Z,101259.16
2023-04-08T02:21:12.677Z,101257.34
2023-04-08T02:23:41.265Z,101258.19
2023-04-08T02:26:13.029Z,101246.91
2023-04-08T02:28:42.291Z,101253.03
2023-04-08T02:31:15.373Z,101250.34
2023-04-08T02:33:46.368Z,101247.66
2023-04-08T02:36:15.039Z,101258.19
2023-04-08T02:38:41.961Z,101256.50
2023-04-08T02:41:09.062Z,101264.34
2023-04-08T02:43:36.026Z,101262.63
2023-04-08T02:46:07.895Z,101264.53
2023-04-08T02:48:36.925Z,101264.69
2023-04-08T02:51:04.007Z,101269.00
2023-04-08T02:53:31.138Z,101271.59
2023-04-08T02:55:58.183Z,101270.56
2023-04-08T02:58:25.379Z,101268.03
2023-04-08T03:00:52.325Z,101273.06
2023-04-08T03:03:19.618Z,101273.94
2023-04-08T03:05:46.624Z,101284.66
2023-04-08T03:08:13.414Z,101281.25
2023-04-08T03:10:40.463Z,101282.16
2023-04-08T03:13:07.355Z,101283.88
2023-04-08T04:52:46.355Z,101356.34
2023-04-08T04:55:13.691Z,101367.44
2023-04-08T04:57:41.448Z,101366.66
2023-04-08T05:00:14.234Z,101364.25
2023-04-08T05:02:41.646Z,101378.38
2023-04-08T05:05:10.017Z,101380.94
2023-04-08T05:07:37.937Z,101381.06
2023-04-08T05:10:06.207Z,101380.22
2023-04-08T05:12:36.309Z,101379.31
2023-04-08T05:15:03.780Z,101379.25
2023-04-08T05:17:34.310Z,101388.03
2023-04-08T05:20:01.846Z,101392.38
2023-04-08T05:22:29.453Z,101396.56
2023-04-08T05:24:58.318Z,101396.66
2023-04-08T05:27:26.086Z,101393.16
2023-04-08T05:29:53.838Z,101401.66
2023-04-08T05:32:21.252Z,101399.19
2023-04-08T05:34:48.791Z,101409.72
2023-04-08T05:37:15.832Z,101409.56
2023-04-08T05:39:43.170Z,101415.66
2023-04-08T05:42:10.210Z,101413.19
2023-04-08T05:47:44.545Z,101420.66
2023-04-08T05:50:14.016Z,101435.56
2023-04-08T05:52:45.068Z,101425.78
2023-04-08T05:55:15.675Z,101429.44
2023-04-08T05:57:44.189Z,101432.13
2023-04-08T06:00:13.571Z,101435.75
2023-04-08T06:02:41.784Z,101427.78
2023-04-08T06:05:12.005Z,101431.13
2023-04-08T06:07:52.193Z,101438.03
2023-04-08T06:10:19.651Z,101438.13
2023-04-08T06:12:47.280Z,101432.84
2023-04-08T06:15:14.728Z,101437.97
2023-04-08T06:17:42.089Z,101440.66
2023-04-08T06:20:13.184Z,101432.56
2023-04-08T06:22:40.233Z,101446.75
2023-04-08T06:25:09.169Z,101442.34
2023-04-08T06:31:25.342Z,101444.06
2023-04-08T06:34:31.904Z,101444.03
2023-04-08T06:37:01.862Z,101453.47
2023-04-08T06:39:58.522Z,101457.03
2023-04-08T06:42:53.186Z,101462.31
2023-04-08T06:45:34.732Z,101456.81
2023-04-08T06:48:26.054Z,101461.25
2023-04-08T06:51:05.342Z,101468.16
2023-04-08T06:53:35.014Z,101477.66
2023-04-08T06:56:02.226Z,101468.84
2023-04-08T06:58:31.633Z,101476.47
2023-04-08T07:00:59.972Z,101478.38
2023-04-08T07:03:27.503Z,101488.72
2023-04-08T07:05:54.770Z,101487.81
2023-04-08T07:08:21.755Z,101489.38
2023-04-08T07:11:43.452Z,101489.38
2023-04-08T07:15:03.613Z,101499.75
2023-04-08T07:17:47.958Z,101497.78
2023-04-08T07:20:15.135Z,101508.00
2023-04-08T07:22:44.693Z,101510.22
2023-04-08T07:25:47.369Z,101512.22
2023-04-08T07:28:18.901Z,101509.69
2023-04-08T07:30:56.067Z,101510.41
2023-04-08T09:30:16.208Z,101613.34
2023-04-08T09:32:53.683Z,101611.16
2023-04-08T09:35:21.080Z,101617.34
2023-04-08T09:37:48.477Z,101619.53
2023-04-08T09:40:37.067Z,101609.66
2023-04-08T09:43:09.383Z,101620.44
2023-04-08T09:45:39.405Z,101619.88
2023-04-08T09:48:16.396Z,101617.00
2023-04-08T09:50:48.159Z,101622.88
2023-04-08T09:53:23.433Z,101608.09
2023-04-08T09:55:52.174Z,101625.31
2023-04-08T09:58:28.203Z,101623.13
2023-04-08T10:01:08.859Z,101622.16
2023-04-08T10:03:38.592Z,101614.81
2023-04-08T10:06:12.213Z,101615.34
2023-04-08T10:08:42.172Z,101619.28
2023-04-08T10:11:09.699Z,101632.00
2023-04-08T10:13:41.048Z,101618.19
2023-04-08T10:16:24.770Z,101624.88
2023-04-08T10:18:56.030Z,101619.72
2023-04-08T10:21:37.348Z,101614.28
2023-04-08T10:24:08.876Z,101616.59
2023-04-08T10:26:44.092Z,101619.53
2023-04-08T10:29:21.728Z,101614.91
2023-04-08T10:31:52.895Z,101603.00
2023-04-08T10:34:23.137Z,101606.78
2023-04-08T10:36:52.890Z,101609.59
2023-04-08T10:39:20.069Z,101606.03
2023-04-08T10:41:51.119Z,101609.66
2023-04-08T10:44:27.007Z,101605.69
2023-04-08T10:47:05.139Z,101602.63
2023-04-08T10:49:41.777Z,101615.75
2023-04-08T10:52:21.860Z,101612.56
2023-04-08T10:54:53.584Z,101602.31
2023-04-08T10:57:27.415Z,101598.84
2023-04-08T10:59:57.333Z,101597.38
2023-04-08T11:02:33.396Z,101609.34
2023-04-08T11:05:00.289Z,101598.28
2023-04-08T11:07:27.455Z,101603.75
2023-04-08T11:09:55.971Z,101603.84
2023-04-08T11:12:23.208Z,101609.34
2023-04-08T11:14:53.047Z,101600.19
2023-04-08T11:17:19.863Z,101596.69
2023-04-08T11:19:46.812Z,101607.72
2023-04-08T11:22:13.597Z,101608.28
2023-04-08T11:24:50.606Z,101612.00
2023-04-08T11:32:18.247Z,101612.59
2023-04-08T11:35:46.153Z,101610.00
2023-04-08T11:35:46.613Z,101611.28
2023-04-08T11:42:53.179Z,101619.53
2023-04-08T11:45:24.196Z,101618.59
2023-04-08T11:47:51.152Z,101617.50
2023-04-08T11:50:26.168Z,101622.91
2023-04-08T11:52:53.851Z,101629.59
2023-04-08T11:55:31.649Z,101621.81
2023-04-08T11:58:03.604Z,101620.53
2023-04-08T12:00:31.467Z,101613.56
2023-04-08T12:02:58.455Z,101610.97
2023-04-08T12:05:25.684Z,101615.16
2023-04-08T12:07:52.554Z,101612.97
2023-04-08T12:28:07.242Z,101617.06
2023-04-08T14:02:54.398Z,101577.03
2023-04-08T14:05:21.356Z,101575.25
2023-04-08T14:07:48.251Z,101581.09
2023-04-08T14:10:16.419Z,101581.22
2023-04-08T14:12:43.232Z,101579.28
2023-04-08T14:15:10.485Z,101569.66
2023-04-08T14:17:37.375Z,101574.38
2023-04-08T14:20:06.636Z,101560.00
2023-04-08T14:22:33.418Z,101565.22
2023-04-08T14:25:00.667Z,101564.56
2023-04-08T14:27:28.217Z,101569.00
2023-04-08T14:29:54.991Z,101568.00
2023-04-08T14:32:22.013Z,101570.13
2023-04-08T14:34:49.144Z,101567.31
2023-04-08T14:37:17.995Z,101571.63
2023-04-08T14:39:45.244Z,101565.91
2023-04-08T14:42:12.113Z,101563.63
2023-04-08T14:44:39.276Z,101566.81
2023-04-08T14:47:06.058Z,101569.53
2023-04-08T14:49:32.793Z,101576.47
2023-04-08T14:51:59.720Z,101559.53
2023-04-08T14:54:26.446Z,101562.66
2023-04-08T14:56:54.174Z,101557.31
2023-04-08T14:59:21.074Z,101552.34
2023-04-08T15:01:47.907Z,101556.09
2023-04-08T15:04:14.877Z,101553.91
2023-04-08T15:06:41.653Z,101545.66
2023-04-08T15:09:08.497Z,101557.97
2023-04-08T15:11:35.445Z,101544.75
2023-04-08T15:14:04.839Z,101558.06
2023-04-08T15:16:31.913Z,101543.81
2023-04-08T15:19:00.630Z,101541.25
2023-04-08T15:21:27.838Z,101544.69
2023-04-08T15:23:55.007Z,101548.06
2023-04-08T15:26:21.908Z,101548.81
2023-04-08T15:28:49.258Z,101545.25
2023-04-08T15:31:16.968Z,101562.63
2023-04-08T15:33:48.840Z,101563.22
2023-04-08T15:36:59.082Z,101557.31
2023-04-08T15:39:26.590Z,101565.81
2023-04-08T15:42:05.164Z,101561.53
2023-04-08T15:48:08.551Z,101567.47
2023-04-08T15:50:36.130Z,101565.34
2023-04-08T15:53:03.504Z,101564.69
2023-04-08T15:59:03.325Z,101561.78
2023-04-08T16:05:58.375Z,101551.78
2023-04-08T16:09:08.150Z,101558.44
2023-04-08T16:11:45.278Z,101559.28
2023-04-08T16:14:19.031Z,101564.53
2023-04-08T16:20:40.056Z,101563.25
2023-04-08T16:23:32.310Z,101571.63
2023-04-08T16:25:59.157Z,101567.41
2023-04-08T16:28:35.471Z,101572.88
2023-04-08T16:35:28.787Z,101586.38
2023-04-08T16:38:14.065Z,101587.03
2023-04-08T16:41:06.508Z,101598.28
2023-04-08T16:43:37.970Z,101602.56
2023-04-08T16:46:17.962Z,101599.03
2023-04-08T16:48:57.510Z,101603.53
2023-04-08T16:51:35.292Z,101599.00
2023-04-08T16:54:11.630Z,101604.81
2023-04-08T16:56:51.081Z,101607.84
2023-04-08T17:02:51.737Z,101620.06
2023-04-08T17:05:23.817Z,101625.16
2023-04-08T17:07:51.882Z,101629.47
2023-04-08T17:10:19.963Z,101636.66
2023-04-08T17:12:47.263Z,101635.22
2023-04-08T17:15:18.362Z,101635.88
2023-04-08T17:17:48.211Z,101632.59
2023-04-08T17:20:16.025Z,101643.25
2023-04-08T17:22:43.603Z,101639.91
2023-04-08T17:25:18.396Z,101646.78
2023-04-08T17:27:54.911Z,101639.59
2023-04-08T17:30:23.610Z,101644.31
2023-04-08T17:32:52.881Z,101653.25
2023-04-08T17:35:21.683Z,101660.38
2023-04-08T17:37:51.417Z,101671.72
2023-04-08T17:40:20.444Z,101678.38
2023-04-08T17:42:48.056Z,101684.66
2023-04-08T17:45:20.892Z,101692.00
2023-04-08T17:47:50.777Z,101696.38
2023-04-08T17:50:18.600Z,101703.31
2023-04-08T17:52:49.563Z,101712.41
2023-04-08T17:55:17.497Z,101711.66
2023-04-08T17:57:45.617Z,101725.72
2023-04-08T18:00:16.828Z,101727.59
2023-04-08T18:02:44.896Z,101725.75
2023-04-08T18:05:12.851Z,101737.81
2023-04-08T18:07:40.433Z,101741.88
2023-04-08T18:10:08.348Z,101744.13
2023-04-08T18:12:35.976Z,101754.59
2023-04-08T18:15:09.381Z,101759.25
2023-04-08T18:17:46.997Z,101764.50
2023-04-08T18:20:18.573Z,101769.13
2023-04-08T18:22:46.372Z,101778.16
2023-04-08T18:25:26.093Z,101784.88
2023-04-08T18:27:54.809Z,101787.16
2023-04-08T18:30:59.922Z,101795.34
2023-04-08T18:33:30.071Z,101797.94
2023-04-08T18:35:59.606Z,101785.72
2023-04-08T18:38:40.851Z,101800.81
2023-04-08T18:41:25.166Z,101805.47
2023-04-08T18:44:13.860Z,101808.13
2023-04-08T18:46:49.045Z,101807.38
2023-04-08T18:49:28.862Z,101821.47
2023-04-08T18:52:02.623Z,101817.19
2023-04-08T18:54:38.071Z,101825.91
2023-04-08T18:57:07.257Z,101825.06
2023-04-08T18:59:34.233Z,101830.38
2023-04-08T19:02:08.775Z,101829.69
2023-04-08T19:04:36.031Z,101828.88
2023-04-08T19:07:03.417Z,101835.09
2023-04-08T19:09:30.648Z,101828.88
2023-04-08T19:11:57.790Z,101829.75
2023-04-08T19:14:25.870Z,101834.13
2023-04-08T19:16:52.941Z,101838.66
2023-04-08T19:19:19.950Z,101837.66
2023-04-08T19:21:48.923Z,101836.66
2023-04-08T19:24:16.204Z,101834.00
2023-04-08T19:26:43.370Z,101845.50
2023-04-08T19:29:14.481Z,101839.50
2023-04-08T19:31:43.702Z,101836.75
2023-04-08T19:34:10.931Z,101837.81
2023-04-08T19:36:38.698Z,101834.47
2023-04-08T19:39:06.773Z,101836.19
2023-04-08T19:41:34.436Z,101839.78
2023-04-08T19:44:02.027Z,101836.19
2023-04-08T19:46:29.930Z,101841.50
2023-04-08T19:48:59.181Z,101844.53
2023-04-08T19:51:28.197Z,101840.03
2023-04-08T19:53:55.633Z,101840.97
2023-04-08T19:56:26.260Z,101852.41
2023-04-08T19:58:55.123Z,101850.72
2023-04-08T20:01:22.624Z,101852.78
2023-04-08T20:03:52.994Z,101848.16
2023-04-08T20:06:21.018Z,101848.56
2023-04-08T20:08:50.738Z,101846.94
2023-04-08T20:11:17.909Z,101853.31
2023-04-08T20:13:45.136Z,101851.56
2023-04-08T20:16:13.464Z,101855.00
2023-04-08T20:18:49.592Z,101851.28
2023-04-08T20:22:03.519Z,101857.66
2023-04-08T20:24:30.809Z,101852.53
2023-04-08T20:27:02.167Z,101862.19
2023-04-08T20:29:30.625Z,101847.31
2023-04-08T20:31:58.029Z,101855.00
2023-04-08T20:34:25.060Z,101855.13
2023-04-08T20:36:53.164Z,101851.66
2023-04-08T20:39:20.190Z,101851.66
2023-04-08T20:41:48.638Z,101850.69
2023-04-08T20:44:16.210Z,101852.47
2023-04-08T20:46:43.374Z,101853.53
2023-04-08T20:49:10.365Z,101854.63
2023-04-08T20:51:37.336Z,101848.31
2023-04-08T20:54:05.150Z,101857.09
2023-04-08T20:56:32.433Z,101853.47
2023-04-08T20:59:00.463Z,101859.56
2023-04-08T21:01:28.601Z,101858.63
2023-04-08T21:03:56.296Z,101853.47
2023-04-08T21:06:27.769Z,101855.25
2023-04-08T21:08:54.773Z,101856.50
2023-04-08T21:11:21.990Z,101860.22
2023-04-08T21:13:49.549Z,101852.72
2023-04-08T21:16:16.818Z,101859.41
2023-04-08T21:18:43.694Z,101865.41
2023-04-08T21:21:11.577Z,101857.34
2023-04-08T21:23:38.398Z,101864.38
2023-04-08T21:26:11.263Z,101855.78
2023-04-08T21:28:39.019Z,101864.66
2023-04-08T21:31:10.214Z,101868.19
2023-04-08T21:33:38.130Z,101868.19
2023-04-08T21:36:06.597Z,101866.31
2023-04-08T21:38:33.914Z,101862.00
2023-04-08T21:41:01.061Z,101863.88
2023-04-08T21:43:27.926Z,101861.22
2023-04-08T21:45:54.823Z,101854.16
2023-04-08T21:48:21.802Z,101864.59
2023-04-08T21:50:49.289Z,101867.31
2023-04-08T21:53:16.928Z,101860.34
2023-04-08T21:55:43.783Z,101857.69
2023-04-08T21:58:12.599Z,101855.91
2023-04-08T22:00:39.568Z,101856.91
2023-04-08T22:03:09.497Z,101848.41
2023-04-08T22:05:37.056Z,101843.44
2023-04-08T22:08:04.051Z,101850.72
2023-04-08T22:10:30.797Z,101842.16
2023-04-08T22:12:57.671Z,101851.97
2023-04-08T22:15:24.524Z,101837.22
2023-04-08T22:17:51.579Z,101830.56
2023-04-08T22:20:18.744Z,101841.03
2023-04-08T22:22:45.634Z,101850.59
2023-04-08T22:25:12.646Z,101841.78
2023-04-08T22:27:39.566Z,101843.56
2023-04-08T22:30:07.142Z,101836.78
2023-04-08T22:32:33.939Z,101832.66
2023-04-08T22:35:00.767Z,101840.63
2023-04-08T22:37:27.610Z,101837.25
2023-04-08T22:39:54.768Z,101833.72
2023-04-08T22:42:21.815Z,101828.66
2023-04-08T22:44:48.629Z,101836.69
2023-04-08T22:47:15.900Z,101835.84
2023-04-08T22:49:42.910Z,101834.13
2023-04-08T22:52:10.005Z,101832.50
2023-04-08T22:54:37.337Z,101831.75
2023-04-08T22:57:04.233Z,101831.81
2023-04-08T22:59:31.167Z,101831.16
2023-04-08T23:01:58.111Z,101821.59
2023-04-08T23:04:25.010Z,101822.63
2023-04-08T23:06:51.857Z,101821.88
2023-04-08T23:09:19.738Z,101822.91
2023-04-08T23:11:46.564Z,101822.25
2023-04-08T23:14:13.461Z,101819.75
2023-04-08T23:16:40.485Z,101829.44
2023-04-08T23:19:07.307Z,101821.63
2023-04-08T23:21:34.307Z,101821.69
2023-04-08T23:24:01.160Z,101825.50
2023-04-08T23:26:27.982Z,101826.72
2023-04-08T23:28:54.844Z,101827.09
2023-04-08T23:31:21.813Z,101820.31
2023-04-08T23:33:48.747Z,101817.78
2023-04-08T23:36:15.582Z,101818.09
2023-04-08T23:38:42.565Z,101828.56
2023-04-08T23:41:09.437Z,101832.16
2023-04-08T23:43:36.762Z,101828.69
2023-04-08T23:46:03.726Z,101823.81
2023-04-08T23:48:30.551Z,101827.41
2023-04-08T23:50:57.356Z,101824.00
2023-04-08T23:53:24.195Z,101832.03
2023-04-08T23:55:51.197Z,101824.28
2023-04-08T23:58:18.072Z,101827.94
